createdAt,value
2017-02-26T00:00:05.772Z,71.09
2017-02-26T00:00:46.534Z,71.05
2017-02-26T00:01:27.310Z,71.44
2017-02-26T00:02:08.152Z,71.15
2017-02-26T00:02:49.023Z,71.15
2017-02-26T00:03:30.417Z,70.96
2017-02-26T00:04:11.526Z,71.15
2017-02-26T00:04:52.503Z,70.96
2017-02-26T00:05:33.441Z,71.34
2017-02-26T00:06:14.494Z,70.96
2017-02-26T00:06:55.222Z,71.53
2017-02-26T00:07:36.013Z,71.05
2017-02-26T00:08:16.897Z,70.96
2017-02-26T00:08:59.529Z,71.34
2017-02-26T00:09:40.743Z,71.15
2017-02-26T00:10:21.936Z,71.25
2017-02-26T00:11:02.917Z,71.34
2017-02-26T00:11:44.301Z,71.15
2017-02-26T00:12:25.488Z,70.99
2017-02-26T00:13:06.576Z,71.15
2017-02-26T00:13:47.607Z,71.15
2017-02-26T00:14:28.661Z,71.28
2017-02-26T00:15:09.671Z,71.34
2017-02-26T00:15:51.011Z,71.34
2017-02-26T00:16:32.012Z,71.44
2017-02-26T00:17:13.076Z,71.44
2017-02-26T00:17:54.643Z,71.44
2017-02-26T00:18:35.782Z,71.53
2017-02-26T00:19:17.092Z,71.53
2017-02-26T00:19:57.916Z,70.96
2017-02-26T00:20:39.195Z,71.15
2017-02-26T00:21:20.536Z,71.66
2017-02-26T00:22:01.530Z,71.34
2017-02-26T00:22:42.775Z,71.44
2017-02-26T00:23:23.985Z,71.53
2017-02-26T00:24:06.183Z,71.53
2017-02-26T00:24:47.274Z,71.63
2017-02-26T00:25:28.615Z,71.53
2017-02-26T00:26:09.744Z,71.25
2017-02-26T00:26:50.686Z,71.53
2017-02-26T00:27:32.084Z,71.44
2017-02-26T00:28:13.150Z,71.63
2017-02-26T00:28:54.199Z,71.63
2017-02-26T00:29:35.316Z,71.34
2017-02-26T00:30:16.601Z,71.25
2017-02-26T00:32:12.003Z,71.34
2017-02-26T00:32:54.116Z,71.72
2017-02-26T00:33:35.300Z,71.72
2017-02-26T00:34:16.516Z,71.44
2017-02-26T00:34:57.779Z,71.44
2017-02-26T00:35:38.792Z,71.44
2017-02-26T00:36:19.868Z,71.63
2017-02-26T00:37:00.965Z,71.15
2017-02-26T00:37:42.420Z,71.53
2017-02-26T00:38:23.378Z,71.15
2017-02-26T00:39:04.957Z,71.25
2017-02-26T00:39:47.084Z,71.15
2017-02-26T00:40:26.997Z,71.63
2017-02-26T00:41:07.936Z,71.15
2017-02-26T00:41:49.424Z,71.15
2017-02-26T00:42:30.757Z,71.44
2017-02-26T00:43:12.020Z,71.72
2017-02-26T00:43:53.021Z,71.53
2017-02-26T00:44:33.785Z,71.25
2017-02-26T00:45:15.313Z,71.72
2017-02-26T00:45:56.873Z,71.34
2017-02-26T00:46:38.869Z,71.53
2017-02-26T00:47:20.531Z,71.44
2017-02-26T00:48:02.115Z,72.2
2017-02-26T00:48:43.207Z,72.2
2017-02-26T00:49:24.433Z,72.11
2017-02-26T00:50:05.679Z,72.11
2017-02-26T00:50:46.578Z,72.01
2017-02-26T00:51:27.446Z,71.92
2017-02-26T00:52:08.605Z,71.34
2017-02-26T00:52:49.841Z,71.63
2017-02-26T00:53:30.709Z,71.63
2017-02-26T00:54:11.737Z,71.63
2017-02-26T00:54:53.062Z,71.44
2017-02-26T00:55:34.059Z,71.92
2017-02-26T00:56:15.912Z,71.44
2017-02-26T00:56:57.101Z,71.44
2017-02-26T00:57:38.645Z,71.82
2017-02-26T00:58:19.664Z,71.92
2017-02-26T00:59:00.669Z,72.01
2017-02-26T00:59:41.712Z,71.92
2017-02-26T01:00:22.818Z,71.53
2017-02-26T01:02:44.089Z,72.49
2017-02-26T01:03:25.237Z,72.68
2017-02-26T01:04:06.446Z,71.82
2017-02-26T01:04:47.611Z,72.49
2017-02-26T01:05:29.317Z,72.39
2017-02-26T01:06:10.430Z,72.49
2017-02-26T01:06:51.683Z,72.49
2017-02-26T01:07:32.449Z,71.82
2017-02-26T01:08:13.703Z,71.82
2017-02-26T01:08:54.988Z,71.92
2017-02-26T01:09:36.260Z,72.01
2017-02-26T01:10:17.147Z,72.49
2017-02-26T01:10:58.138Z,72.59
2017-02-26T01:12:53.505Z,71.92
2017-02-26T01:13:34.705Z,71.92
2017-02-26T01:14:15.650Z,71.82
2017-02-26T01:14:56.685Z,71.82
2017-02-26T01:15:37.717Z,72.2
2017-02-26T01:16:18.623Z,72.49
2017-02-26T01:16:59.877Z,72.39
2017-02-26T01:17:41.169Z,72.11
2017-02-26T01:18:22.373Z,72.59
2017-02-26T01:19:03.406Z,72.3
2017-02-26T01:19:45.199Z,72.39
2017-02-26T01:20:26.455Z,72.59
2017-02-26T01:21:08.225Z,72.11
2017-02-26T01:21:49.270Z,72.49
2017-02-26T01:22:30.747Z,72.11
2017-02-26T01:23:11.972Z,72.59
2017-02-26T01:23:53.042Z,72.59
2017-02-26T01:24:34.111Z,72.39
2017-02-26T01:25:15.543Z,72.39
2017-02-26T01:25:56.946Z,72.39
2017-02-26T01:26:37.993Z,72.59
2017-02-26T01:27:19.026Z,72.2
2017-02-26T01:28:00.189Z,72.39
2017-02-26T01:28:41.208Z,72.2
2017-02-26T01:29:22.890Z,72.39
2017-02-26T01:30:03.485Z,72.49
2017-02-26T01:30:45.439Z,72.2
2017-02-26T01:31:26.604Z,72.3
2017-02-26T01:33:16.847Z,72.39
2017-02-26T01:33:58.320Z,72.59
2017-02-26T01:34:39.423Z,72.3
2017-02-26T01:35:20.432Z,72.49
2017-02-26T01:36:01.621Z,72.11
2017-02-26T01:36:42.697Z,72.11
2017-02-26T01:37:24.337Z,72.59
2017-02-26T01:38:07.665Z,72.49
2017-02-26T01:38:48.971Z,71.82
2017-02-26T01:39:30.786Z,72.49
2017-02-26T01:40:12.518Z,72.01
2017-02-26T01:40:53.847Z,71.82
2017-02-26T01:41:34.744Z,72.53
2017-02-26T01:42:15.720Z,72.59
2017-02-26T01:42:57.442Z,72.59
2017-02-26T01:43:39.228Z,72.2
2017-02-26T01:44:20.284Z,72.39
2017-02-26T01:45:01.339Z,72.49
2017-02-26T01:45:43.341Z,72.2
2017-02-26T01:46:25.397Z,72.11
2017-02-26T01:47:06.688Z,72.2
2017-02-26T01:47:47.973Z,72.59
2017-02-26T01:48:29.621Z,72.11
2017-02-26T01:49:10.660Z,72.3
2017-02-26T01:49:51.687Z,72.49
2017-02-26T01:50:33.791Z,72.53
2017-02-26T01:51:14.926Z,72.01
2017-02-26T01:51:55.966Z,72.2
2017-02-26T01:52:37.853Z,72.3
2017-02-26T01:53:20.711Z,72.59
2017-02-26T01:54:01.979Z,72.2
2017-02-26T01:54:43.642Z,72.3
2017-02-26T01:55:24.570Z,72.2
2017-02-26T01:56:05.450Z,71.92
2017-02-26T01:56:46.766Z,72.39
2017-02-26T01:57:27.908Z,72.3
2017-02-26T01:58:08.895Z,72.01
2017-02-26T01:58:50.013Z,72.01
2017-02-26T01:59:31.841Z,72.01
2017-02-26T02:00:12.762Z,72.2
2017-02-26T02:00:53.955Z,72.01
2017-02-26T02:01:34.895Z,72.11
2017-02-26T02:02:16.004Z,72.2
2017-02-26T02:02:57.063Z,72.59
2017-02-26T02:03:38.204Z,72.59
2017-02-26T02:04:19.682Z,72.3
2017-02-26T02:05:00.913Z,72.59
2017-02-26T02:05:41.939Z,72.68
2017-02-26T02:06:23.315Z,72.59
2017-02-26T02:07:04.273Z,72.68
2017-02-26T02:07:46.464Z,72.3
2017-02-26T02:08:27.520Z,72.59
2017-02-26T02:09:08.177Z,72.3
2017-02-26T02:09:49.058Z,72.11
2017-02-26T02:10:29.937Z,72.2
2017-02-26T02:11:11.035Z,72.3
2017-02-26T02:11:51.912Z,72.3
2017-02-26T02:12:33.418Z,72.2
2017-02-26T02:13:15.281Z,72.59
2017-02-26T02:13:56.786Z,72.2
2017-02-26T02:14:38.020Z,72.2
2017-02-26T02:15:19.593Z,72.2
2017-02-26T02:16:02.177Z,72.11
2017-02-26T02:16:43.160Z,72.2
2017-02-26T02:17:24.444Z,72.11
2017-02-26T02:18:05.702Z,72.78
2017-02-26T02:18:47.040Z,72.3
2017-02-26T02:19:28.283Z,72.3
2017-02-26T02:20:10.512Z,72.2
2017-02-26T02:20:51.601Z,72.2
2017-02-26T02:21:32.681Z,72.49
2017-02-26T02:22:13.760Z,72.68
2017-02-26T02:22:55.549Z,72.39
2017-02-26T02:23:38.170Z,72.59
2017-02-26T02:24:19.166Z,72.68
2017-02-26T02:25:00.544Z,72.3
2017-02-26T02:25:41.757Z,72.11
2017-02-26T02:26:23.287Z,72.49
2017-02-26T02:27:05.618Z,72.39
2017-02-26T02:27:47.634Z,72.3
2017-02-26T02:28:28.729Z,73.16
2017-02-26T02:29:09.689Z,72.3
2017-02-26T02:29:50.816Z,72.39
2017-02-26T02:30:31.973Z,72.39
2017-02-26T02:31:13.131Z,72.3
2017-02-26T02:31:54.902Z,72.49
2017-02-26T02:32:38.512Z,72.39
2017-02-26T02:33:34.972Z,72.2
2017-02-26T02:34:16.536Z,72.59
2017-02-26T02:34:57.780Z,72.59
2017-02-26T02:35:39.376Z,72.39
2017-02-26T02:36:20.367Z,72.49
2017-02-26T02:37:01.897Z,72.2
2017-02-26T02:37:43.123Z,72.39
2017-02-26T02:38:24.160Z,72.39
2017-02-26T02:39:05.709Z,72.2
2017-02-26T02:39:46.894Z,72.39
2017-02-26T02:40:27.974Z,72.3
2017-02-26T02:41:09.590Z,72.2
2017-02-26T02:41:50.653Z,72.39
2017-02-26T02:42:33.191Z,72.68
2017-02-26T02:43:13.736Z,72.97
2017-02-26T02:43:54.890Z,72.39
2017-02-26T02:44:36.127Z,72.3
2017-02-26T02:45:17.195Z,72.39
2017-02-26T02:45:59.190Z,72.2
2017-02-26T02:46:39.572Z,72.68
2017-02-26T02:47:21.169Z,72.3
2017-02-26T02:48:02.284Z,72.78
2017-02-26T02:48:44.192Z,72.39
2017-02-26T02:49:25.149Z,72.88
2017-02-26T02:50:06.317Z,72.88
2017-02-26T02:50:47.168Z,72.78
2017-02-26T02:51:28.301Z,72.39
2017-02-26T02:52:09.781Z,72.3
2017-02-26T02:52:51.352Z,72.3
2017-02-26T02:53:32.950Z,72.88
2017-02-26T02:54:14.084Z,72.78
2017-02-26T02:54:55.551Z,72.39
2017-02-26T02:55:36.743Z,72.39
2017-02-26T02:56:17.804Z,72.39
2017-02-26T02:56:59.436Z,72.3
2017-02-26T02:57:40.434Z,72.68
2017-02-26T02:58:21.970Z,72.68
2017-02-26T02:59:03.891Z,72.97
2017-02-26T02:59:45.356Z,72.78
2017-02-26T03:00:26.491Z,72.78
2017-02-26T03:01:08.009Z,72.97
2017-02-26T03:01:50.400Z,72.39
2017-02-26T03:02:48.019Z,72.88
2017-02-26T03:03:29.628Z,72.88
2017-02-26T03:04:11.445Z,72.68
2017-02-26T03:04:53.224Z,72.68
2017-02-26T03:05:35.675Z,72.78
2017-02-26T03:06:16.977Z,72.78
2017-02-26T03:06:58.521Z,72.68
2017-02-26T03:07:40.811Z,72.78
2017-02-26T03:08:22.430Z,72.68
2017-02-26T03:09:04.198Z,72.68
2017-02-26T03:09:45.741Z,73.07
2017-02-26T03:10:27.110Z,72.88
2017-02-26T03:11:10.536Z,72.88
2017-02-26T03:11:54.931Z,72.88
2017-02-26T03:12:36.131Z,72.59
2017-02-26T03:13:17.629Z,72.88
2017-02-26T03:13:59.795Z,72.68
2017-02-26T03:14:41.611Z,72.68
2017-02-26T03:15:23.105Z,73.16
2017-02-26T03:16:05.878Z,73.07
2017-02-26T03:16:46.857Z,72.68
2017-02-26T03:17:27.991Z,73.07
2017-02-26T03:18:09.203Z,72.68
2017-02-26T03:18:50.243Z,72.78
2017-02-26T03:19:31.142Z,72.88
2017-02-26T03:20:12.730Z,72.49
2017-02-26T03:20:55.125Z,72.68
2017-02-26T03:21:36.197Z,72.88
2017-02-26T03:22:17.290Z,72.88
2017-02-26T03:22:58.449Z,73.07
2017-02-26T03:23:40.039Z,72.68
2017-02-26T03:24:21.141Z,72.49
2017-02-26T03:25:03.860Z,72.97
2017-02-26T03:25:45.017Z,72.59
2017-02-26T03:26:26.371Z,72.88
2017-02-26T03:27:07.931Z,72.68
2017-02-26T03:27:49.427Z,72.88
2017-02-26T03:28:30.823Z,72.78
2017-02-26T03:29:11.769Z,72.78
2017-02-26T03:29:54.267Z,72.88
2017-02-26T03:30:36.394Z,72.68
2017-02-26T03:31:17.839Z,72.88
2017-02-26T03:33:33.979Z,72.59
2017-02-26T03:34:15.722Z,72.68
2017-02-26T03:34:56.852Z,72.59
2017-02-26T03:35:38.156Z,72.68
2017-02-26T03:36:19.908Z,72.97
2017-02-26T03:37:01.322Z,72.68
2017-02-26T03:37:42.544Z,72.68
2017-02-26T03:38:25.095Z,72.68
2017-02-26T03:39:07.075Z,72.68
2017-02-26T03:39:48.073Z,72.78
2017-02-26T03:40:29.722Z,72.68
2017-02-26T03:41:11.050Z,72.59
2017-02-26T03:41:53.331Z,72.97
2017-02-26T03:42:34.699Z,72.3
2017-02-26T03:43:15.953Z,72.3
2017-02-26T03:43:57.752Z,72.39
2017-02-26T03:44:39.847Z,72.68
2017-02-26T03:45:21.033Z,73.16
2017-02-26T03:46:02.226Z,72.97
2017-02-26T03:46:43.941Z,72.88
2017-02-26T03:47:25.860Z,72.97
2017-02-26T03:48:07.636Z,73.07
2017-02-26T03:48:48.861Z,73.16
2017-02-26T03:49:30.055Z,72.68
2017-02-26T03:50:11.334Z,73.07
2017-02-26T03:50:52.395Z,72.97
2017-02-26T03:51:34.475Z,72.78
2017-02-26T03:52:14.508Z,73.07
2017-02-26T03:52:56.177Z,73.26
2017-02-26T03:53:37.841Z,72.78
2017-02-26T03:54:19.138Z,72.97
2017-02-26T03:55:01.015Z,72.68
2017-02-26T03:55:42.590Z,72.97
2017-02-26T03:56:24.228Z,72.88
2017-02-26T03:57:05.922Z,72.78
2017-02-26T03:57:47.708Z,72.78
2017-02-26T03:58:28.634Z,72.97
2017-02-26T03:59:09.994Z,72.78
2017-02-26T03:59:52.965Z,72.88
2017-02-26T04:00:33.959Z,72.97
2017-02-26T04:01:15.466Z,72.97
2017-02-26T04:01:56.851Z,72.68
2017-02-26T04:02:38.453Z,72.78
2017-02-26T04:03:20.261Z,72.97
2017-02-26T04:04:01.867Z,73.16
2017-02-26T04:04:42.942Z,72.97
2017-02-26T04:05:24.673Z,72.97
2017-02-26T04:06:06.324Z,73.26
2017-02-26T04:06:47.449Z,72.68
2017-02-26T04:07:30.169Z,72.59
2017-02-26T04:08:11.282Z,72.78
2017-02-26T04:08:52.459Z,72.68
2017-02-26T04:09:33.994Z,73.07
2017-02-26T04:10:15.459Z,72.68
2017-02-26T04:10:56.553Z,72.59
2017-02-26T04:11:37.874Z,72.2
2017-02-26T04:12:19.109Z,72.88
2017-02-26T04:14:14.421Z,72.78
2017-02-26T04:14:56.777Z,72.68
2017-02-26T04:15:38.353Z,72.39
2017-02-26T04:16:19.473Z,72.78
2017-02-26T04:17:00.578Z,72.78
2017-02-26T04:17:42.165Z,72.39
2017-02-26T04:18:23.255Z,72.59
2017-02-26T04:19:04.441Z,72.68
2017-02-26T04:19:45.597Z,72.88
2017-02-26T04:20:27.485Z,73.16
2017-02-26T04:21:08.615Z,73.07
2017-02-26T04:21:49.824Z,72.97
2017-02-26T04:22:30.702Z,73.07
2017-02-26T04:23:11.654Z,73.16
2017-02-26T04:23:52.977Z,73.07
2017-02-26T04:24:34.311Z,73.07
2017-02-26T04:25:15.545Z,73.16
2017-02-26T04:25:57.498Z,73.07
2017-02-26T04:26:39.165Z,73.07
2017-02-26T04:27:20.255Z,73.16
2017-02-26T04:28:01.830Z,72.88
2017-02-26T04:28:43.465Z,73.07
2017-02-26T04:29:24.615Z,72.88
2017-02-26T04:30:06.668Z,72.88
2017-02-26T04:30:48.310Z,73.16
2017-02-26T04:31:29.521Z,72.68
2017-02-26T04:32:10.949Z,73.07
2017-02-26T04:32:53.833Z,72.78
2017-02-26T04:33:36.328Z,72.78
2017-02-26T04:34:17.346Z,73.26
2017-02-26T04:34:58.295Z,73.16
2017-02-26T04:35:39.335Z,72.88
2017-02-26T04:36:20.341Z,73.07
2017-02-26T04:37:01.669Z,72.88
2017-02-26T04:37:43.087Z,72.88
2017-02-26T04:38:24.902Z,72.88
2017-02-26T04:39:06.419Z,73.07
2017-02-26T04:39:48.017Z,72.88
2017-02-26T04:40:29.156Z,72.3
2017-02-26T04:41:10.325Z,72.68
2017-02-26T04:41:51.379Z,73.35
2017-02-26T04:42:33.029Z,72.97
2017-02-26T04:43:14.321Z,73.26
2017-02-26T04:43:55.365Z,73.07
2017-02-26T04:44:38.188Z,73.07
2017-02-26T04:45:19.482Z,73.07
2017-02-26T04:46:00.756Z,73.07
2017-02-26T04:46:41.821Z,73.26
2017-02-26T04:47:22.873Z,72.78
2017-02-26T04:48:04.200Z,73.07
2017-02-26T04:48:45.209Z,72.88
2017-02-26T04:49:26.384Z,72.88
2017-02-26T04:50:07.507Z,72.97
2017-02-26T04:50:48.401Z,72.68
2017-02-26T04:51:29.703Z,72.97
2017-02-26T04:52:11.087Z,73.07
2017-02-26T04:52:52.903Z,73.16
2017-02-26T04:54:53.544Z,72.97
2017-02-26T04:55:35.855Z,72.88
2017-02-26T04:56:17.624Z,72.97
2017-02-26T04:57:00.402Z,72.97
2017-02-26T04:57:41.908Z,72.78
2017-02-26T04:58:22.951Z,72.88
2017-02-26T04:59:05.791Z,72.97
2017-02-26T04:59:46.201Z,73.26
2017-02-26T05:00:27.470Z,73.26
2017-02-26T05:01:09.099Z,72.97
2017-02-26T05:01:50.756Z,72.78
2017-02-26T05:02:31.580Z,73.07
2017-02-26T05:03:12.820Z,72.97
2017-02-26T05:03:54.008Z,73.07
2017-02-26T05:04:35.994Z,72.68
2017-02-26T05:05:17.316Z,72.68
2017-02-26T05:05:58.530Z,73.07
2017-02-26T05:06:39.483Z,72.78
2017-02-26T05:07:21.628Z,72.97
2017-02-26T05:08:02.816Z,73.07
2017-02-26T05:08:44.031Z,73.26
2017-02-26T05:09:26.395Z,73.07
2017-02-26T05:10:07.976Z,73.26
2017-02-26T05:10:49.573Z,73.26
2017-02-26T05:11:30.897Z,73.16
2017-02-26T05:12:12.800Z,72.97
2017-02-26T05:12:54.493Z,72.88
2017-02-26T05:13:35.912Z,72.78
2017-02-26T05:14:16.952Z,72.78
2017-02-26T05:14:59.706Z,72.78
2017-02-26T05:15:41.427Z,72.78
2017-02-26T05:16:22.387Z,72.78
2017-02-26T05:17:03.922Z,72.78
2017-02-26T05:17:45.086Z,72.68
2017-02-26T05:18:26.330Z,72.88
2017-02-26T05:19:08.508Z,73.07
2017-02-26T05:19:49.596Z,72.88
2017-02-26T05:20:30.847Z,72.59
2017-02-26T05:21:12.266Z,72.88
2017-02-26T05:21:55.008Z,73.16
2017-02-26T05:22:36.706Z,72.59
2017-02-26T05:23:19.879Z,72.78
2017-02-26T05:24:01.495Z,72.59
2017-02-26T05:24:42.961Z,73.07
2017-02-26T05:25:24.356Z,72.88
2017-02-26T05:26:05.322Z,72.78
2017-02-26T05:26:46.463Z,72.88
2017-02-26T05:27:27.654Z,72.88
2017-02-26T05:28:09.303Z,73.35
2017-02-26T05:28:50.457Z,72.88
2017-02-26T05:29:31.462Z,73.16
2017-02-26T05:30:12.658Z,72.59
2017-02-26T05:30:54.728Z,72.68
2017-02-26T05:31:36.107Z,72.78
2017-02-26T05:32:17.663Z,72.78
2017-02-26T05:32:58.636Z,73.16
2017-02-26T05:33:40.004Z,72.59
2017-02-26T05:35:56.685Z,72.68
2017-02-26T05:36:37.771Z,73.35
2017-02-26T05:37:19.737Z,73.16
2017-02-26T05:38:01.262Z,73.35
2017-02-26T05:38:42.458Z,72.88
2017-02-26T05:39:24.177Z,73.13
2017-02-26T05:40:05.199Z,73.07
2017-02-26T05:40:46.638Z,73.07
2017-02-26T05:41:29.115Z,73.16
2017-02-26T05:42:10.437Z,73.07
2017-02-26T05:42:51.694Z,73.26
2017-02-26T05:43:33.735Z,73.16
2017-02-26T05:44:14.671Z,73.16
2017-02-26T05:44:56.185Z,73.16
2017-02-26T05:45:37.343Z,73.16
2017-02-26T05:46:18.479Z,72.88
2017-02-26T05:46:59.729Z,72.59
2017-02-26T05:47:40.759Z,72.68
2017-02-26T05:48:21.839Z,72.78
2017-02-26T05:49:02.931Z,72.88
2017-02-26T05:49:44.181Z,72.59
2017-02-26T05:50:25.239Z,73.26
2017-02-26T05:51:06.150Z,72.59
2017-02-26T05:51:47.416Z,72.97
2017-02-26T05:52:28.470Z,72.88
2017-02-26T05:53:10.216Z,72.88
2017-02-26T05:53:51.868Z,72.97
2017-02-26T05:56:12.954Z,73.26
2017-02-26T05:56:55.763Z,73.16
2017-02-26T05:57:36.638Z,73.26
2017-02-26T05:58:18.278Z,73.26
2017-02-26T05:58:58.803Z,73.26
2017-02-26T05:59:39.933Z,73.16
2017-02-26T06:00:21.623Z,73.35
2017-02-26T06:01:03.901Z,73.16
2017-02-26T06:01:46.425Z,73.16
2017-02-26T06:02:29.926Z,73.16
2017-02-26T06:03:12.680Z,73.07
2017-02-26T06:03:54.417Z,73.16
2017-02-26T06:04:36.737Z,73.65
2017-02-26T06:05:18.267Z,73.65
2017-02-26T06:06:00.910Z,73.26
2017-02-26T06:06:43.198Z,73.35
2017-02-26T06:07:25.605Z,73.26
2017-02-26T06:08:06.955Z,73.32
2017-02-26T06:08:49.411Z,73.35
2017-02-26T06:09:32.269Z,73.07
2017-02-26T06:10:13.894Z,73.65
2017-02-26T06:10:56.725Z,73.26
2017-02-26T06:11:38.944Z,73.16
2017-02-26T06:12:21.316Z,73.74
2017-02-26T06:13:03.386Z,73.35
2017-02-26T06:13:45.094Z,73.65
2017-02-26T06:14:26.426Z,73.74
2017-02-26T06:15:23.020Z,73.61
2017-02-26T06:16:04.400Z,73.32
2017-02-26T06:16:46.276Z,73.61
2017-02-26T06:17:28.630Z,73.35
2017-02-26T06:18:10.228Z,73.26
2017-02-26T06:18:52.901Z,73.16
2017-02-26T06:19:34.092Z,73.26
2017-02-26T06:20:16.279Z,73.35
2017-02-26T06:20:57.845Z,73.26
2017-02-26T06:21:39.211Z,73.32
2017-02-26T06:22:20.676Z,73.35
2017-02-26T06:23:02.423Z,73.65
2017-02-26T06:23:45.422Z,73.55
2017-02-26T06:24:27.160Z,73.55
2017-02-26T06:25:09.291Z,73.55
2017-02-26T06:25:51.254Z,73.41
2017-02-26T06:26:33.926Z,73.51
2017-02-26T06:27:15.219Z,73.41
2017-02-26T06:27:57.175Z,73.61
2017-02-26T06:28:39.369Z,73.41
2017-02-26T06:29:21.754Z,73.51
2017-02-26T06:30:04.400Z,73.41
2017-02-26T06:30:46.941Z,73.51
2017-02-26T06:31:28.401Z,73.45
2017-02-26T06:32:09.440Z,73.55
2017-02-26T06:32:51.370Z,73.51
2017-02-26T06:33:32.742Z,73.65
2017-02-26T06:34:13.831Z,73.35
2017-02-26T06:34:56.708Z,73.65
2017-02-26T06:36:52.852Z,73.55
2017-02-26T06:37:35.367Z,73.65
2017-02-26T06:39:51.426Z,73.61
2017-02-26T06:40:33.117Z,73.45
2017-02-26T06:41:15.130Z,73.32
2017-02-26T06:41:57.332Z,73.32
2017-02-26T06:42:40.149Z,73.45
2017-02-26T06:43:22.427Z,73.51
2017-02-26T06:44:03.371Z,73.74
2017-02-26T06:44:45.793Z,73.7
2017-02-26T06:45:28.364Z,73.51
2017-02-26T06:46:10.085Z,73.51
2017-02-26T06:46:52.768Z,73.55
2017-02-26T06:47:35.166Z,73.51
2017-02-26T06:48:18.218Z,73.45
2017-02-26T06:49:01.795Z,73.65
2017-02-26T06:49:43.972Z,73.65
2017-02-26T06:50:26.665Z,73.26
2017-02-26T06:51:08.889Z,73.55
2017-02-26T06:51:50.328Z,73.32
2017-02-26T06:52:32.500Z,73.65
2017-02-26T06:53:14.868Z,73.51
2017-02-26T06:53:56.151Z,73.74
2017-02-26T06:54:37.799Z,73.7
2017-02-26T06:55:19.730Z,73.61
2017-02-26T06:56:01.170Z,73.41
2017-02-26T06:56:42.705Z,73.32
2017-02-26T06:57:25.194Z,73.41
2017-02-26T06:58:08.224Z,73.55
2017-02-26T06:58:52.909Z,73.51
2017-02-26T06:59:35.524Z,73.55
2017-02-26T07:00:17.104Z,73.61
2017-02-26T07:00:59.542Z,73.32
2017-02-26T07:01:43.236Z,73.22
2017-02-26T07:02:26.429Z,73.55
2017-02-26T07:03:09.542Z,73.32
2017-02-26T07:03:53.252Z,73.74
2017-02-26T07:04:35.602Z,73.65
2017-02-26T07:05:21.055Z,73.22
2017-02-26T07:06:03.046Z,73.03
2017-02-26T07:06:46.111Z,73.26
2017-02-26T07:07:28.544Z,73.22
2017-02-26T07:08:10.982Z,73.41
2017-02-26T07:09:07.787Z,73.13
2017-02-26T07:09:50.889Z,73.03
2017-02-26T07:10:32.167Z,73.22
2017-02-26T07:11:13.669Z,73.45
2017-02-26T07:11:56.726Z,73.35
2017-02-26T07:12:37.817Z,73.13
2017-02-26T07:13:19.912Z,73.32
2017-02-26T07:14:02.352Z,73.22
2017-02-26T07:14:44.290Z,73.32
2017-02-26T07:15:27.250Z,72.94
2017-02-26T07:16:09.718Z,73.22
2017-02-26T07:16:52.244Z,73.41
2017-02-26T07:17:33.991Z,72.94
2017-02-26T07:18:16.050Z,73.22
2017-02-26T07:18:57.982Z,73.16
2017-02-26T07:19:39.509Z,73.13
2017-02-26T07:20:21.520Z,73.41
2017-02-26T07:21:03.376Z,73.35
2017-02-26T07:21:45.249Z,73.22
2017-02-26T07:22:28.272Z,73.22
2017-02-26T07:23:10.275Z,73.22
2017-02-26T07:23:52.125Z,73.22
2017-02-26T07:24:34.264Z,73.9
2017-02-26T07:25:17.802Z,73.35
2017-02-26T07:25:59.942Z,73.07
2017-02-26T07:26:41.788Z,73.26
2017-02-26T07:27:23.476Z,73.45
2017-02-26T07:28:06.806Z,72.88
2017-02-26T07:28:48.746Z,72.68
2017-02-26T07:29:33.498Z,72.68
2017-02-26T07:30:15.728Z,73.26
2017-02-26T07:30:58.720Z,73.26
2017-02-26T07:31:40.891Z,72.88
2017-02-26T07:32:25.381Z,72.3
2017-02-26T07:33:07.509Z,72.59
2017-02-26T07:33:49.774Z,72.68
2017-02-26T07:34:32.779Z,72.78
2017-02-26T07:35:15.213Z,72.59
2017-02-26T07:35:58.079Z,72.64
2017-02-26T07:36:40.742Z,72.2
2017-02-26T07:37:24.709Z,72.3
2017-02-26T07:38:07.237Z,72.2
2017-02-26T07:38:50.778Z,72.39
2017-02-26T07:39:32.683Z,72.49
2017-02-26T07:40:15.227Z,72.59
2017-02-26T07:40:59.485Z,72.11
2017-02-26T07:41:42.844Z,71.92
2017-02-26T07:42:25.269Z,71.53
2017-02-26T07:43:08.653Z,71.92
2017-02-26T07:43:52.035Z,72.01
2017-02-26T07:44:34.709Z,71.63
2017-02-26T07:45:17.836Z,71.53
2017-02-26T07:46:00.763Z,72.01
2017-02-26T07:46:45.258Z,71.53
2017-02-26T07:47:28.466Z,71.63
2017-02-26T07:48:11.717Z,71.15
2017-02-26T07:48:55.971Z,71.25
2017-02-26T07:49:41.765Z,71.63
2017-02-26T07:50:25.353Z,71.53
2017-02-26T07:51:07.957Z,71.44
2017-02-26T07:51:49.825Z,71.25
2017-02-26T07:52:32.789Z,71.34
2017-02-26T07:53:15.451Z,71.05
2017-02-26T07:53:58.252Z,71.15
2017-02-26T07:54:40.535Z,70.96
2017-02-26T07:55:22.370Z,70.48
2017-02-26T07:56:03.898Z,70.38
2017-02-26T07:56:45.257Z,70.57
2017-02-26T07:57:26.669Z,70.67
2017-02-26T07:58:10.291Z,70.57
2017-02-26T07:58:51.670Z,70.38
2017-02-26T07:59:32.759Z,70.76
2017-02-26T08:00:14.557Z,70.76
2017-02-26T08:00:56.802Z,70.38
2017-02-26T08:01:39.786Z,70.38
2017-02-26T08:02:22.779Z,70.42
2017-02-26T08:03:05.124Z,70.38
2017-02-26T08:03:46.744Z,70.23
2017-02-26T08:04:28.885Z,70.23
2017-02-26T08:05:10.638Z,70.23
2017-02-26T08:05:52.545Z,69.93
2017-02-26T08:06:33.995Z,69.93
2017-02-26T08:07:15.940Z,69.93
2017-02-26T08:07:57.817Z,69.84
2017-02-26T08:08:40.773Z,70.23
2017-02-26T08:10:42.945Z,69.74
2017-02-26T08:11:25.203Z,70.03
2017-02-26T08:12:06.671Z,69.84
2017-02-26T08:12:49.696Z,69.65
2017-02-26T08:13:31.044Z,69.84
2017-02-26T08:14:12.331Z,70.23
2017-02-26T08:14:53.988Z,69.56
2017-02-26T08:15:36.142Z,69.65
2017-02-26T08:16:17.843Z,69.74
2017-02-26T08:16:59.518Z,69.56
2017-02-26T08:17:40.791Z,69.74
2017-02-26T08:18:21.930Z,69.46
2017-02-26T08:19:02.886Z,69.46
2017-02-26T08:21:18.897Z,69.46
2017-02-26T08:22:00.325Z,69.2
2017-02-26T08:22:41.235Z,69.26
2017-02-26T08:23:22.211Z,68.98
2017-02-26T08:24:03.764Z,68.79
2017-02-26T08:24:45.250Z,68.3
2017-02-26T08:25:26.542Z,68.98
2017-02-26T08:26:07.540Z,69.3
2017-02-26T08:26:48.842Z,68.63
2017-02-26T08:27:30.130Z,67.96
2017-02-26T08:28:11.810Z,68.34
2017-02-26T08:28:52.869Z,68.15
2017-02-26T08:29:35.520Z,68.44
2017-02-26T08:30:16.815Z,68.53
2017-02-26T08:30:58.326Z,68.91
2017-02-26T08:31:40.180Z,68.15
2017-02-26T08:32:21.168Z,68.63
2017-02-26T08:33:02.510Z,67.96
2017-02-26T08:33:43.550Z,68.15
2017-02-26T08:34:25.236Z,68.34
2017-02-26T08:35:06.244Z,68.44
2017-02-26T08:35:48.084Z,68.24
2017-02-26T08:37:38.314Z,67.99
2017-02-26T08:38:19.621Z,67.8
2017-02-26T08:39:00.799Z,67.57
2017-02-26T08:39:41.907Z,67.76
2017-02-26T08:40:23.022Z,67.86
2017-02-26T08:41:04.186Z,67.67
2017-02-26T08:41:44.995Z,68.44
2017-02-26T08:42:25.923Z,68.44
2017-02-26T08:43:06.981Z,68.24
2017-02-26T08:43:48.492Z,68.73
2017-02-26T08:44:29.552Z,69.11
2017-02-26T08:45:10.809Z,69.01
2017-02-26T08:45:51.744Z,69.01
2017-02-26T08:46:33.751Z,69.4
2017-02-26T08:47:14.694Z,69.11
2017-02-26T08:47:55.555Z,69.01
2017-02-26T08:48:36.501Z,69.01
2017-02-26T08:49:17.876Z,68.91
2017-02-26T08:49:59.029Z,69.11
2017-02-26T08:50:39.824Z,68.91
2017-02-26T08:51:20.886Z,68.91
2017-02-26T08:52:02.057Z,69.49
2017-02-26T08:52:43.295Z,69.68
2017-02-26T08:53:24.368Z,70.07
2017-02-26T08:54:05.251Z,69.97
2017-02-26T08:54:46.696Z,70.23
2017-02-26T08:55:27.652Z,70.07
2017-02-26T08:56:08.749Z,69.97
2017-02-26T08:56:50.022Z,70.07
2017-02-26T08:57:31.184Z,69.87
2017-02-26T08:58:12.077Z,69.49
2017-02-26T08:58:53.311Z,69.97
2017-02-26T08:59:34.731Z,70.07
2017-02-26T09:00:16.603Z,69.78
2017-02-26T09:00:56.553Z,69.2
2017-02-26T09:01:37.533Z,69.87
2017-02-26T09:02:18.526Z,69.87
2017-02-26T09:02:59.742Z,70.07
2017-02-26T09:03:40.675Z,70.17
2017-02-26T09:04:21.729Z,69.78
2017-02-26T09:05:02.722Z,69.97
2017-02-26T09:05:44.097Z,70.26
2017-02-26T09:06:25.168Z,69.49
2017-02-26T09:07:06.180Z,69.11
2017-02-26T09:07:47.540Z,68.37
2017-02-26T09:08:29.379Z,68.85
2017-02-26T09:09:10.886Z,68.66
2017-02-26T09:09:52.538Z,68.44
2017-02-26T09:10:34.235Z,68.34
2017-02-26T09:11:15.343Z,68.63
2017-02-26T09:11:56.577Z,68.73
2017-02-26T09:12:37.699Z,68.47
2017-02-26T09:13:18.814Z,68.53
2017-02-26T09:14:00.441Z,69.2
2017-02-26T09:14:41.605Z,68.91
2017-02-26T09:15:23.466Z,68.82
2017-02-26T09:16:05.284Z,69.2
2017-02-26T09:18:21.529Z,69.01
2017-02-26T09:19:02.917Z,69.68